Date,TemperatureHighF,TemperatureAvgF,TemperatureLowF,DewpointHighF,DewpointAvgF,DewpointLowF,HumidityHigh,HumidityAvg,HumidityLow,PressureMaxIn,PressureMinIn,WindSpeedMaxMPH,WindSpeedAvgMPH,GustSpeedMaxMPH,PrecipitationSumIn
2013-1-1,24,19,10,24,18,8,98,95,92,30.52,30.36,0,0,0,0.00
2013-1-2,27,20,9,24,18,7,97,92,85,30.52,30.39,0,0,0,0.00
2013-1-3,29,14,6,26,11,3,95,89,81,30.39,30.25,0,0,0,0.00
2013-1-4,30,20,14,26,19,12,96,93,82,30.34,30.29,0,0,0,0.00
2013-1-5,33,27,22,29,25,20,97,90,83,30.33,30.15,15,2,15,0.02
2013-1-6,29,25,22,27,24,21,98,95,92,30.15,30.03,0,0,0,0.00
2013-1-7,35,32,28,34,31,27,100,98,94,30.03,29.82,31,6,31,0.00
2013-1-8,37,33,30,37,32,28,100,95,88,30.10,29.82,32,7,32,0.04
2013-1-9,41,37,30,41,34,28,100,90,82,29.83,29.64,30,16,35,0.00
2013-1-10,27,23,18,26,21,17,100,94,88,29.84,29.77,15,7,15,0.00
2013-1-11,30,20,6,21,14,3,91,75,63,30.17,30.10,15,3,15,0.00
2013-1-12,18,15,7,16,13,5,95,93,90,30.22,30.16,10,0,13,0.00
2013-1-13,34,16,8,26,12,4,92,84,70,30.39,30.36,8,1,8,0.00
2013-1-14,24,19,14,22,17,12,96,93,91,30.43,30.29,6,0,8,0.00
2013-1-15,32,24,16,28,22,15,100,94,83,30.56,30.43,0,0,0,0.00
2013-1-16,37,24,12,32,22,10,100,91,80,30.56,30.51,8,0,8,0.02
2013-1-17,27,20,12,26,19,12,100,95,89,30.53,30.35,0,0,0,0.00
2013-1-18,27,18,9,26,17,7,96,94,91,30.36,30.25,0,0,0,0.00
2013-1-19,44,23,9,38,20,7,99,89,74,30.43,30.36,0,0,0,0.00
2013-1-20,40,20,10,34,16,7,97,87,69,30.50,30.39,0,0,0,0.00
2013-1-21,31,13,5,29,10,2,96,89,81,30.39,30.28,0,0,0,0.00
2013-1-22,26,17,9,24,14,7,95,92,86,30.31,30.16,0,0,0,0.00
2013-1-23,35,25,16,31,23,14,99,93,79,30.17,29.95,0,0,0,0.00
2013-1-24,30,25,21,28,24,20,98,96,93,30.27,30.10,0,0,0,0.00
2013-1-25,40,33,29,38,33,28,100,98,92,30.17,29.95,9,1,9,0.27
2013-1-26,34,31,28,34,30,27,100,98,92,29.99,29.91,10,2,10,0.00
2013-1-27,34,28,24,31,27,24,100,96,89,30.03,29.96,8,0,8,0.00
2013-1-28,32,28,26,30,28,25,99,97,92,29.96,29.89,0,0,0,0.00
2013-1-29,41,31,26,37,29,26,99,95,81,30.20,29.90,0,0,0,0.04
2013-1-30,44,31,25,40,30,24,100,96,84,30.25,30.13,0,0,0,0.04
2013-1-31,41,33,26,38,32,26,100,97,90,30.29,30.20,13,1,13,0.00
2013-2-1,39,30,25,37,29,25,100,97,90,30.46,30.21,7,0,7,0.00
2013-2-2,35,30,25,34,30,25,100,98,95,30.48,30.26,0,0,0,0.00
2013-2-3,36,29,26,36,29,26,100,100,99,30.26,30.20,0,0,0,0.00
2013-2-5,32,32,32,32,32,32,98,98,98,29.96,29.96,9,9,9,0.00
2013-2-6,40,34,30,36,32,29,99,92,84,30.09,29.95,16,2,16,0.00
2013-2-7,41,35,32,38,32,31,97,92,81,30.07,29.95,11,3,13,0.02
2013-2-8,49,34,23,44,32,22,100,92,73,30.16,30.07,11,2,11,0.00
2013-2-9,37,24,17,33,22,16,99,93,85,30.22,30.08,5,0,5,0.00
2013-2-10,35,28,16,32,26,15,99,94,86,30.30,30.22,12,1,12,0.02
2013-2-11,44,31,21,38,29,20,100,91,71,30.25,30.20,7,0,8,0.00
2013-2-12,38,34,29,35,32,28,97,94,87,30.31,30.18,18,6,18,0.00
2013-2-13,52,36,24,41,32,21,97,83,62,30.36,30.16,22,4,24,0.00
2013-2-14,48,31,22,39,27,19,95,86,67,30.53,30.36,8,1,9,0.00
2013-2-15,51,32,20,40,28,18,99,87,65,30.53,30.29,8,0,8,0.00
2013-2-16,47,34,22,40,31,21,99,90,74,30.29,29.96,15,4,16,0.00
2013-2-17,50,36,27,37,29,23,91,77,58,30.13,29.99,17,4,17,0.00
2013-2-18,40,32,19,32,26,17,96,81,70,30.12,29.83,8,1,11,0.00
2013-2-19,40,32,29,37,30,26,97,92,86,29.91,29.79,8,0,8,0.14
2013-2-20,51,31,20,39,27,17,99,85,61,30.02,29.91,10,1,11,0.00
2013-2-21,40,30,19,35,27,17,96,91,82,30.04,29.99,18,6,18,0.02
2013-2-22,35,32,26,35,31,25,98,96,86,30.01,29.67,28,14,32,0.02
2013-2-23,46,32,20,35,27,18,91,81,65,30.22,29.74,22,6,28,0.00
2013-2-24,39,29,19,33,26,17,97,87,77,30.32,30.09,17,6,18,0.00
2013-2-25,42,34,28,37,30,22,98,85,73,30.12,29.92,25,7,28,0.04
2013-2-26,43,31,21,34,26,20,96,82,68,30.32,30.12,15,5,15,0.00
2013-2-27,48,35,28,37,29,25,90,79,62,30.30,30.21,12,2,12,0.00
2013-2-28,39,35,31,38,34,28,100,95,84,30.37,30.26,9,2,10,0.12
2013-3-1,46,41,35,44,40,35,100,97,92,30.38,30.31,20,7,20,0.00
2013-3-2,52,43,38,46,40,36,99,91,80,30.32,29.94,16,4,16,0.00
2013-3-3,47,37,27,36,27,20,93,67,51,30.20,29.94,13,6,13,0.00
2013-3-4,44,34,25,32,24,20,88,68,53,30.30,30.11,8,1,10,0.00
2013-3-5,39,33,29,30,25,20,89,74,63,30.12,29.88,10,3,10,0.00
2013-3-6,44,36,32,38,33,29,98,88,80,29.88,29.67,14,4,14,0.17
2013-3-7,44,35,26,41,33,25,99,95,84,30.10,29.88,16,3,19,0.08
2013-3-8,41,31,24,38,30,23,99,96,88,30.16,30.07,6,0,6,0.00
2013-3-9,52,38,23,44,32,22,100,81,57,30.42,30.16,12,1,12,0.02
2013-3-10,45,35,25,38,31,23,98,87,71,30.41,30.26,11,3,11,0.00
2013-3-11,50,37,26,40,30,25,99,78,47,30.35,30.25,10,1,10,0.00
2013-3-12,54,44,35,48,40,29,96,84,74,30.25,30.09,24,7,26,0.02
2013-3-13,57,49,40,48,43,38,94,83,68,30.22,30.11,18,8,23,0.00
2013-3-14,61,50,42,50,44,38,93,80,62,30.18,30.04,17,4,17,0.00
2013-3-15,60,47,34,48,39,33,94,75,55,30.20,30.06,15,5,15,0.00
2013-3-16,53,42,34,43,37,30,93,82,58,30.09,29.74,30,10,37,0.04
2013-3-17,50,37,28,34,26,22,88,68,44,30.04,29.76,22,14,32,0.00
2013-3-18,47,34,24,34,26,20,91,74,44,30.20,29.99,26,10,31,0.00
2013-3-19,46,36,20,34,26,18,97,71,48,30.28,29.88,20,4,20,0.00
2013-3-20,52,42,33,47,38,29,99,86,62,29.88,29.57,27,12,39,0.33
2013-3-21,47,34,22,33,25,18,86,71,46,30.04,29.83,24,11,28,0.00
2013-3-22,47,33,21,38,23,16,95,70,49,30.25,30.03,17,3,17,0.00
2013-3-23,44,30,16,32,23,13,96,76,53,30.35,30.25,15,3,15,0.00
2013-3-24,45,33,20,34,23,17,97,69,43,30.35,30.21,13,2,14,0.00
2013-3-25,51,38,23,34,26,18,84,64,49,30.22,30.04,13,1,13,0.00
2013-3-26,57,42,24,38,30,20,84,65,49,30.06,30.00,10,1,10,0.00
2013-3-27,57,44,32,42,35,26,91,73,56,30.05,30.00,9,1,9,0.00
2013-3-28,60,48,32,50,40,31,99,77,59,30.14,30.05,10,2,10,0.00
2013-3-29,64,50,33,51,38,31,97,68,46,30.25,30.14,17,3,17,0.00
2013-3-30,65,50,30,49,40,28,92,68,50,30.33,30.17,12,1,12,0.00
2013-3-31,69,52,32,50,40,30,98,67,45,30.17,30.00,10,1,10,0.00
2013-4-1,71,56,35,53,42,32,92,62,43,30.05,29.99,17,2,17,0.00
2013-4-2,66,54,41,51,44,40,96,72,50,30.14,30.03,20,9,22,0.00
2013-4-3,66,52,38,50,42,36,97,71,48,30.17,30.07,19,5,19,0.00
2013-4-4,56,48,38,49,43,34,98,85,69,30.07,29.81,17,4,17,0.10
2013-4-5,61,50,42,50,44,41,100,82,58,29.92,29.86,33,14,33,0.02
2013-4-6,60,47,39,49,40,35,100,78,51,29.92,29.85,28,12,32,0.02
2013-4-7,50,41,35,46,38,33,98,89,70,29.88,29.62,30,9,30,0.35
2013-4-8,50,40,34,40,34,29,97,82,62,30.26,29.81,13,4,13,0.00
2013-4-9,59,45,28,42,35,25,92,69,51,30.35,30.23,10,1,10,0.00
2013-4-10,61,48,37,52,39,32,90,73,53,30.24,29.86,29,10,30,0.04
2013-4-11,56,44,31,41,34,27,93,70,49,30.14,30.07,21,6,21,0.00
2013-4-12,54,40,28,40,34,25,95,79,55,30.13,29.65,22,7,26,0.04
2013-4-13,51,40,31,37,29,22,95,67,42,29.86,29.62,30,11,31,0.00
2013-4-14,51,35,24,38,29,21,96,79,59,29.98,29.86,16,3,16,0.00
2013-4-15,47,39,31,29,25,20,86,58,45,30.16,29.94,24,9,25,0.00
2013-4-16,47,38,27,26,21,16,69,51,42,30.36,30.16,23,7,27,0.00
2013-4-17,61,42,21,38,25,14,77,52,35,30.42,30.32,15,3,16,0.00
2013-4-18,61,46,25,41,33,19,81,62,47,30.35,30.19,16,6,16,0.00
2013-4-19,60,48,41,49,44,37,96,85,64,30.19,29.96,22,11,22,0.10
2013-4-20,63,48,33,47,38,31,93,69,45,30.11,29.99,26,10,31,0.00
2013-4-21,60,43,33,46,35,28,93,75,55,30.31,30.09,19,4,20,0.02
2013-4-22,62,43,29,36,29,21,92,61,37,30.48,30.32,16,4,16,0.00
2013-4-23,58,43,26,39,29,19,78,60,44,30.37,30.23,8,1,8,0.00
2013-4-24,67,51,31,45,35,25,83,56,40,30.31,30.02,12,2,12,0.00
2013-4-25,71,55,32,48,39,27,86,56,36,30.10,29.99,11,2,11,0.00
2013-4-26,75,62,40,53,43,34,80,52,35,30.22,30.10,14,5,14,0.00
2013-4-27,68,56,46,45,39,33,69,54,42,30.16,30.02,32,11,33,0.00
2013-4-28,64,52,38,46,38,33,86,60,43,30.12,29.89,28,10,30,0.00
2013-4-29,57,47,34,41,31,22,82,55,38,30.00,29.78,30,12,32,0.00
2013-4-30,55,40,26,36,27,18,76,60,43,30.35,30.00,18,2,18,0.00
2013-5-1,66,45,22,40,29,18,92,58,35,30.60,30.36,14,2,14,0.00
2013-5-2,70,52,32,43,35,24,79,53,36,30.60,30.30,10,2,12,0.00
2013-5-3,73,59,47,50,43,35,74,56,42,30.32,30.23,13,3,15,0.00
2013-5-4,74,61,44,52,42,35,78,53,37,30.34,30.15,22,5,24,0.00
2013-5-5,78,62,47,48,41,33,68,48,33,30.16,29.96,21,5,21,0.00
2013-5-6,94,66,43,58,45,33,77,49,29,29.99,29.85,10,1,10,0.00
2013-5-7,86,68,44,57,48,36,78,52,34,29.99,29.88,10,0,10,0.00
2013-5-8,87,70,50,60,51,42,87,54,39,30.09,29.98,9,1,9,0.00
2013-5-9,94,73,50,61,52,42,80,51,32,30.17,30.08,8,0,8,0.00
2013-5-10,92,72,48,61,51,41,80,48,31,30.25,30.14,9,1,16,0.00
2013-5-11,88,70,51,62,51,40,73,52,37,30.20,30.09,9,1,9,0.00
2013-5-12,80,67,56,61,53,45,76,63,50,30.11,30.03,13,3,13,0.00
2013-5-13,62,54,42,54,49,34,94,83,72,30.12,29.98,24,8,27,0.24
2013-5-14,75,54,36,47,39,31,85,59,36,30.20,30.11,14,4,20,0.00
2013-5-15,69,54,36,48,40,29,88,62,42,30.14,30.00,8,0,8,0.00
2013-5-16,69,53,45,55,47,42,93,80,54,30.03,29.95,8,0,8,0.07
2013-5-17,75,58,41,57,48,39,99,73,49,30.02,29.93,22,3,24,0.00
2013-5-18,62,53,46,49,46,42,91,76,60,30.18,30.02,15,5,15,0.00
2013-5-19,69,55,45,53,47,42,92,75,55,30.30,30.18,13,2,13,0.00
2013-5-20,78,60,40,56,48,38,99,69,45,30.31,29.96,9,1,13,0.00
2013-5-21,77,54,37,56,46,35,96,77,48,29.96,29.71,30,4,32,0.30
2013-5-22,57,41,34,45,38,32,98,89,63,30.06,29.86,20,5,20,0.06
2013-5-23,68,47,31,48,39,30,99,75,46,30.07,30.01,8,0,8,0.00
2013-5-24,58,46,32,47,40,30,96,79,65,30.07,29.99,10,3,12,0.00
2013-5-25,67,50,34,53,42,33,100,74,48,30.08,30.04,8,2,8,0.00
2013-5-26,74,57,40,52,45,37,94,67,45,30.05,29.96,9,3,12,0.00
2013-5-27,68,56,49,51,48,45,95,75,51,30.01,29.87,13,5,13,0.06
2013-5-28,66,54,47,56,50,46,99,86,67,29.92,29.85,13,2,13,0.07
2013-5-29,61,51,41,52,46,38,97,84,67,29.93,29.77,20,5,20,0.10
2013-5-30,68,54,39,52,44,38,98,71,46,30.16,29.93,17,7,24,0.00
2013-5-31,76,57,36,52,44,33,93,62,41,30.30,30.16,14,2,14,0.00
2013-6-1,72,57,40,52,45,35,92,67,45,30.29,30.05,8,1,9,0.00
2013-6-2,65,52,45,54,47,40,96,85,65,30.04,29.98,14,2,14,0.18
2013-6-3,72,59,48,53,48,43,84,68,51,30.12,30.06,8,2,8,0.00
2013-6-4,87,64,45,58,51,43,95,64,38,30.21,30.12,9,2,9,0.00
2013-6-5,88,69,47,61,54,43,90,60,39,30.14,30.01,13,3,13,0.00
2013-6-6,92,75,54,64,57,48,84,56,39,30.08,29.97,11,2,12,0.00
2013-6-7,83,71,57,61,53,41,73,54,39,30.01,29.91,16,7,19,0.00
2013-6-8,86,67,43,56,47,34,76,51,36,30.10,29.98,14,4,16,0.00
2013-6-9,84,67,47,55,46,34,83,50,22,30.01,29.92,14,4,15,0.00
2013-6-10,86,65,39,54,45,33,81,50,34,29.95,29.84,10,2,10,0.00
2013-6-11,74,61,43,53,44,35,76,56,40,30.06,29.85,21,6,22,0.00
2013-6-12,76,59,39,50,43,34,84,57,38,30.12,30.05,16,5,16,0.00
2013-6-13,74,57,38,53,43,33,84,62,42,30.12,30.07,19,4,19,0.00
2013-6-14,79,57,40,53,44,37,91,65,40,30.19,30.11,15,5,16,0.00
2013-6-15,80,64,40,53,47,36,91,57,35,30.12,30.04,10,2,10,0.00
2013-6-16,88,70,49,59,51,41,79,54,36,30.12,30.02,9,2,9,0.00
2013-6-17,92,72,56,63,55,47,81,58,36,30.08,29.92,11,2,11,0.02
2013-6-18,64,58,52,57,53,48,97,84,65,30.01,29.89,13,4,13,0.18
2013-6-19,57,52,49,54,51,48,99,94,86,29.93,29.85,11,3,12,0.11
2013-6-20,50,48,47,49,48,47,100,97,93,30.10,29.85,22,6,24,0.87
2013-6-21,74,55,46,59,50,46,100,86,58,30.17,30.10,9,1,11,0.02
2013-6-22,76,55,43,61,50,42,99,84,54,30.16,30.03,8,1,8,0.00
2013-6-23,76,64,45,59,53,43,97,69,49,30.02,29.76,8,1,8,0.00
2013-6-24,68,58,52,61,55,51,97,91,76,29.83,29.73,10,3,10,1.26
2013-6-25,71,58,47,60,54,47,100,86,66,29.96,29.83,10,2,11,0.08
2013-6-26,77,64,52,60,56,50,94,76,56,30.17,29.96,9,2,9,0.00
2013-6-27,82,66,52,65,59,51,99,78,57,30.27,30.17,8,1,8,0.00
2013-6-28,92,74,53,69,62,52,98,67,45,30.30,30.15,8,0,8,0.00
2013-6-29,81,62,58,69,58,55,95,88,65,30.18,30.08,9,1,9,0.22
2013-6-30,100,83,58,71,66,57,98,58,38,30.16,30.07,8,0,8,0.86
2013-7-1,97,79,59,90,66,55,100,67,40,30.11,30.01,8,1,8,0.00
2013-7-2,103,86,63,77,69,59,93,61,42,30.11,29.98,11,1,11,0.00
2013-7-3,94,81,64,69,59,49,71,50,31,30.08,29.97,14,2,14,0.00
2013-7-4,90,73,56,61,54,46,73,52,37,30.00,29.88,17,4,17,0.00
2013-7-5,83,68,49,59,52,44,87,59,44,29.96,29.88,12,4,12,0.00
2013-7-6,87,71,52,62,55,48,86,59,41,29.99,29.91,8,0,8,0.00
2013-7-7,89,73,50,62,55,44,82,56,37,29.97,29.89,8,0,8,0.00
2013-7-8,86,73,56,63,56,49,79,57,43,30.15,29.91,12,2,12,0.00
2013-7-9,95,73,51,62,56,47,91,58,34,30.20,30.07,7,0,8,0.00
2013-7-10,95,76,54,64,56,46,87,53,31,30.07,29.85,13,2,14,0.00
2013-7-11,86,71,52,57,48,36,75,45,27,29.96,29.86,15,5,18,0.00
2013-7-12,80,63,49,52,43,35,69,50,34,30.03,29.92,12,1,12,0.00
2013-7-13,87,68,51,57,48,39,71,51,33,30.19,30.03,8,1,9,0.00
2013-7-14,90,70,45,58,50,40,85,53,30,30.18,29.99,10,1,12,0.00
2013-7-15,83,68,48,53,47,38,71,48,34,30.06,29.98,11,3,11,0.00
2013-7-16,87,71,48,60,52,40,81,53,38,30.07,29.94,13,4,13,0.00
2013-7-17,91,77,62,66,57,51,73,52,39,30.15,29.96,8,0,8,0.86
2013-7-18,95,73,55,64,58,50,89,63,32,30.20,30.10,8,1,8,0.00
2013-7-19,103,82,54,66,55,44,81,42,28,30.13,30.00,10,1,10,0.86
2013-7-20,100,79,52,63,53,43,74,43,25,30.02,29.88,11,2,11,0.00
2013-7-21,101,77,53,63,53,41,69,45,29,29.94,29.86,12,2,12,0.00
2013-7-22,99,78,55,62,54,43,66,45,29,29.99,29.86,10,3,11,0.00
2013-7-23,105,80,54,64,55,44,74,44,27,30.09,29.99,9,1,10,0.00
2013-7-24,105,80,54,63,54,42,69,43,25,30.07,30.00,8,1,9,0.00
2013-7-25,103,80,52,64,53,39,67,41,25,30.11,30.02,10,1,10,0.00
2013-7-26,102,79,53,60,50,40,65,39,24,30.14,30.01,11,2,11,0.00
2013-7-27,94,78,56,60,49,39,60,38,27,30.06,29.94,10,2,10,0.00
2013-7-28,92,72,50,59,49,39,72,47,30,29.97,29.90,10,1,10,0.00
2013-7-29,91,71,51,58,51,43,79,52,33,30.01,29.93,8,1,8,0.00
2013-7-30,96,74,54,60,53,45,77,49,30,30.16,30.01,9,1,9,0.00
2013-7-31,88,73,54,58,52,45,76,50,33,30.18,30.04,9,2,9,0.00
2013-8-1,78,65,55,59,54,46,90,67,50,30.04,29.98,9,1,10,0.00
2013-8-2,62,58,56,59,56,54,99,94,87,30.09,29.97,13,4,13,0.12
2013-8-3,85,66,56,66,58,52,100,79,49,30.13,30.05,8,0,8,0.02
2013-8-4,94,72,50,68,59,49,99,66,38,30.08,29.99,9,1,9,0.00
2013-8-5,92,74,52,65,57,50,96,59,36,30.02,29.93,8,1,9,0.00
2013-8-6,94,76,56,66,57,48,83,55,34,30.02,29.92,8,1,8,0.00
2013-8-7,98,76,54,64,54,45,87,49,27,29.98,29.90,9,1,10,0.00
2013-8-8,95,75,52,62,54,42,70,49,32,30.00,29.91,8,0,8,0.00
2013-8-9,93,78,58,66,58,48,76,52,36,29.96,29.86,12,2,12,0.00
2013-8-10,92,81,67,65,61,55,81,52,38,30.01,29.90,14,3,16,0.04
2013-8-11,88,80,60,70,64,54,91,58,45,30.03,29.94,13,2,13,0.23
2013-8-12,98,82,56,68,60,52,88,48,36,30.04,29.96,8,0,8,1.06
2013-8-13,96,76,58,64,56,49,76,53,32,30.10,30.00,8,0,8,0.00
2013-8-14,94,76,56,64,58,50,86,56,35,30.02,29.90,9,2,9,0.00
2013-8-15,95,77,60,65,56,49,68,50,34,30.00,29.91,9,2,9,0.00
2013-8-16,92,76,62,65,57,50,80,54,38,30.04,29.96,11,2,13,0.00
2013-8-17,90,73,53,66,56,48,86,57,38,30.06,29.97,14,3,14,0.00
2013-8-18,90,73,51,60,53,44,80,51,34,30.10,30.00,13,3,16,0.00
2013-8-19,88,74,55,61,54,46,73,50,38,30.05,29.97,13,5,14,0.00
2013-8-20,86,70,48,59,47,36,79,47,27,30.08,29.98,10,2,10,0.00
2013-8-21,87,70,46,55,48,38,78,48,32,30.12,30.01,8,1,9,0.00
2013-8-22,93,71,50,59,50,41,80,50,30,30.02,29.86,16,1,16,0.00
2013-8-23,84,71,60,64,57,50,86,62,45,29.91,29.83,16,3,16,0.04
2013-8-24,87,69,50,61,54,47,92,61,40,29.92,29.81,12,1,12,0.00
2013-8-25,84,69,56,65,57,46,94,68,48,29.98,29.81,32,1,32,0.16
2013-9-1,93,81,60,60,56,48,65,43,32,29.91,29.84,12,5,12,0.00
2013-9-2,81,67,55,64,57,48,85,70,53,29.96,29.86,8,2,8,0.00
2013-9-3,86,72,60,66,60,56,89,69,48,30.02,29.96,13,1,13,0.00
2013-9-4,89,76,61,68,62,57,87,64,46,30.05,29.99,6,1,6,0.00
2013-9-5,75,69,62,67,63,59,96,84,75,30.05,29.92,8,4,8,0.59
2013-9-6,67,60,56,61,56,54,99,89,67,30.13,29.95,13,2,13,0.04
2013-9-7,70,58,50,62,54,50,100,90,72,30.14,30.07,8,1,8,0.05
2013-9-8,76,64,51,60,55,50,100,75,57,30.10,29.99,8,1,8,1.06
2013-9-9,85,68,48,63,56,47,97,69,46,30.05,29.98,8,0,8,0.00
2013-9-10,87,70,51,68,57,49,97,67,44,30.08,30.00,8,0,8,0.00
2013-9-11,88,74,55,64,58,50,87,58,43,30.12,30.04,9,2,11,0.00
2013-9-12,90,77,62,67,58,51,79,53,39,30.06,29.91,9,1,11,0.00
2013-9-13,92,74,53,68,57,49,89,59,37,29.92,29.80,8,0,8,0.00
2013-9-14,90,74,57,64,56,49,81,57,39,29.96,29.84,9,2,9,0.00
2013-9-15,87,75,60,62,56,50,92,54,43,29.90,29.71,23,2,28,0.08
2013-9-16,72,60,53,61,55,48,98,85,61,29.93,29.80,20,3,20,0.00
2013-9-17,74,58,43,58,51,42,99,80,54,29.87,29.73,20,3,20,0.06
2013-9-18,69,56,47,55,48,40,98,75,51,30.07,29.79,15,3,15,0.00
2013-9-19,70,56,38,56,45,35,96,68,48,30.15,29.97,11,2,15,0.00
2013-9-20,77,62,48,53,48,42,81,61,41,29.97,29.61,12,3,12,0.00
2013-9-21,70,57,45,54,47,39,82,70,54,29.75,29.61,25,4,25,0.00
2013-9-22,63,52,41,53,46,38,96,82,58,29.76,29.70,21,7,23,0.04
2013-9-23,61,51,44,51,46,43,99,84,65,29.94,29.76,17,7,20,0.00
2013-9-24,62,51,43,54,44,38,98,80,53,29.93,29.79,12,1,12,0.02
2013-9-25,55,45,34,49,41,32,99,88,73,29.91,29.81,9,1,9,0.02
2013-9-26,61,51,37,55,41,36,96,71,47,30.04,29.91,7,2,7,0.00
2013-9-27,58,48,35,47,42,31,96,79,63,30.02,29.93,14,6,14,1.06
2013-9-28,58,51,46,56,50,44,100,96,91,29.93,29.52,25,8,37,0.29
2013-9-29,55,49,43,52,45,41,97,88,75,29.70,29.47,27,11,37,0.16
2013-9-30,58,49,40,47,43,38,98,82,60,29.91,29.45,21,10,25,0.04
2013-10-1,53,42,33,45,38,33,99,86,71,30.11,29.91,10,4,10,1.06
2013-10-2,53,46,36,44,40,35,98,82,71,30.14,30.04,9,3,10,1.06
2013-10-3,60,46,35,44,38,30,96,74,48,30.38,30.05,9,3,9,0.00
2013-10-4,61,46,29,47,36,27,98,71,47,30.49,30.38,8,0,10,0.00
2013-10-5,65,46,32,45,36,28,90,69,45,30.41,30.26,8,0,8,0.00
2013-10-6,67,49,32,49,40,29,97,73,52,30.27,29.96,10,1,10,0.00
2013-10-7,67,51,41,50,40,34,83,67,50,29.97,29.84,22,8,29,0.00
2013-10-8,53,43,36,44,39,34,96,87,70,30.04,29.89,16,5,16,0.00
2013-10-9,57,43,31,46,38,30,100,84,61,30.09,29.92,10,1,10,0.00
2013-10-10,57,45,34,48,40,32,97,83,61,30.02,29.88,11,1,12,0.00
2013-10-11,60,44,30,46,36,29,99,76,50,30.12,30.02,7,0,8,0.00
2013-10-12,52,43,34,41,37,31,90,80,65,30.15,30.05,7,0,7,0.02
2013-10-13,57,42,30,46,33,27,94,72,48,30.29,30.15,10,0,10,0.00
2013-10-14,58,42,26,45,32,24,96,71,47,30.40,30.29,8,0,9,0.00
2013-10-15,60,42,25,45,33,22,96,72,48,30.41,30.19,4,0,8,0.00
2013-10-16,63,46,35,47,37,30,88,71,53,30.20,30.15,8,0,8,0.00
2013-10-17,57,42,28,47,36,26,98,79,59,30.28,30.19,9,1,9,0.00
2013-10-18,61,43,27,48,36,25,99,77,53,30.31,30.20,8,0,8,0.00
2013-10-19,61,45,29,47,37,27,97,75,55,30.21,30.11,8,0,8,0.00
2013-10-20,67,48,30,50,39,28,97,75,52,30.20,30.14,8,0,8,0.00
2013-10-21,66,41,33,51,38,31,99,88,56,30.26,30.18,4,0,4,1.06
2013-10-22,64,47,32,52,41,31,100,82,60,30.26,30.16,8,0,8,0.00
2013-10-23,62,45,32,50,40,31,99,85,63,30.22,30.14,9,1,9,0.00
2013-10-24,61,44,31,52,40,30,100,86,63,30.19,30.13,6,0,6,0.02
2013-10-25,56,40,30,48,37,29,99,89,72,30.30,30.17,7,0,8,0.00
2013-10-26,53,38,29,46,36,28,100,93,77,30.35,30.10,3,0,3,0.00
2013-10-27,47,39,30,45,36,29,100,91,60,30.10,29.86,26,5,26,0.04
2013-10-28,44,37,33,32,26,21,94,65,50,30.06,29.96,20,10,24,0.00
2013-10-29,51,37,23,34,24,16,79,61,46,30.04,29.99,8,1,8,0.00
2013-10-30,48,32,19,34,25,16,91,76,57,30.11,30.03,8,0,8,0.00
2013-10-31,55,41,30,42,33,27,91,75,58,30.17,30.05,8,0,8,0.00
2013-11-1,49,35,24,44,33,22,98,92,81,30.29,30.03,6,0,7,0.00
2013-11-2,51,42,35,47,38,31,100,88,72,30.04,29.63,22,7,23,0.33
2013-11-3,44,35,30,36,30,27,95,85,61,30.02,29.81,15,5,22,0.00
2013-11-4,37,30,23,34,28,21,97,91,81,30.20,30.01,4,0,4,0.00
2013-11-5,33,30,25,32,29,22,98,96,92,30.22,30.13,7,0,7,0.02
2013-11-6,35,33,31,34,32,30,98,97,94,30.39,30.22,8,0,8,0.04
2013-11-7,42,36,33,42,36,32,100,99,95,30.28,29.81,14,4,18,0.55
2013-11-8,48,38,28,43,36,27,99,92,75,30.19,29.94,12,3,13,0.00
2013-11-9,45,37,29,40,35,28,100,93,82,30.25,30.17,9,1,9,0.04
2013-11-10,42,38,34,41,38,34,100,98,95,30.29,30.16,3,0,3,0.00
2013-11-11,51,42,36,44,38,35,99,89,75,30.39,30.29,13,3,13,0.00
2013-11-12,44,40,36,42,38,34,98,94,85,30.38,30.27,8,1,8,0.00
2013-11-13,45,40,32,45,39,32,100,97,90,30.39,30.27,10,2,10,0.02
2013-11-14,44,37,32,43,36,31,100,98,92,30.27,29.98,10,1,10,0.00
2013-11-15,37,34,32,36,34,32,99,98,92,29.97,29.37,21,8,31,0.12
2013-11-16,44,36,30,37,32,26,98,89,67,29.72,29.28,23,7,25,0.08
2013-11-17,44,36,27,39,32,25,92,87,73,29.95,29.71,20,7,23,0.00
2013-11-18,49,42,37,42,38,34,98,87,75,29.96,29.72,21,9,23,0.05
2013-11-19,53,44,34,47,38,21,98,82,58,29.88,29.65,22,10,30,0.02
2013-11-20,34,26,15,21,10,4,67,52,39,30.44,29.89,15,4,15,0.00
2013-11-21,36,21,10,23,12,4,82,68,52,30.67,30.44,8,0,8,0.00
2013-11-22,34,22,11,23,15,8,92,75,57,30.74,30.62,6,0,7,0.00
2013-11-23,37,25,13,29,18,10,92,76,61,30.63,30.36,8,0,9,0.00
2013-11-24,39,26,15,32,20,13,94,81,64,30.40,30.30,8,0,8,0.00
2013-11-25,40,28,18,33,23,16,97,84,71,30.47,30.39,2,0,6,0.00
2013-11-26,40,28,19,33,24,17,97,86,71,30.40,30.24,6,0,6,0.00
2013-11-27,40,27,18,33,24,16,97,89,75,30.25,30.16,8,0,8,0.00
2013-11-28,40,27,18,37,24,17,97,89,77,30.26,30.18,7,0,7,0.00
2013-11-29,30,26,20,29,25,18,98,96,93,30.32,30.25,0,0,0,0.00
2013-11-30,32,31,26,32,30,25,99,98,97,30.33,30.19,0,0,0,0.00
2013-12-1,41,37,32,40,37,32,100,99,96,30.19,29.69,15,6,15,0.28
2013-12-2,40,32,26,40,28,18,98,85,68,30.02,29.66,15,6,18,0.00
2013-12-3,29,23,15,19,10,4,73,57,47,30.27,30.02,18,8,19,0.00
2013-12-4,29,16,6,19,8,1,89,72,56,30.32,30.26,7,0,7,0.00
2013-12-5,19,11,5,14,8,2,91,87,80,30.29,30.25,8,0,8,0.00
2013-12-6,17,10,5,7,2,-6,89,69,58,30.28,30.22,16,6,16,0.00
2013-12-7,15,6,-3,0,-6,-10,74,58,46,30.31,30.20,17,5,17,0.00
2013-12-8,20,7,-4,11,0,-10,83,72,61,30.47,30.31,8,0,8,0.00
2013-12-9,16,13,8,10,6,3,86,76,71,30.47,30.34,7,0,8,0.00
2013-12-10,27,15,5,19,10,2,92,82,70,30.45,30.31,4,0,6,0.00
2013-12-11,28,23,19,23,19,15,90,84,78,30.45,30.34,5,0,6,0.00
2013-12-12,32,26,20,27,23,18,95,90,81,30.35,30.14,8,0,8,0.00
2013-12-13,33,27,23,30,25,22,97,93,85,30.45,30.19,7,0,7,0.00
2013-12-14,35,31,24,35,30,23,100,99,97,30.45,30.32,10,0,10,0.00
2013-12-15,41,33,23,39,32,23,100,98,91,30.35,30.26,10,2,10,0.02
2013-12-16,40,32,25,40,32,25,100,99,96,30.43,30.35,9,1,9,0.00
2013-12-17,44,31,23,39,29,22,100,94,81,30.37,30.03,5,0,6,0.00
2013-12-18,33,30,24,33,29,18,99,97,71,30.04,29.93,14,1,14,0.00
2013-12-19,31,24,18,20,17,14,84,74,62,30.25,30.03,13,2,14,0.00
2013-12-20,25,22,15,23,19,12,97,91,83,30.14,29.72,6,0,6,0.00
2013-12-21,38,24,13,32,22,11,98,93,74,30.16,29.84,0,0,0,0.02
2013-12-22,31,28,25,30,27,24,99,98,97,30.33,30.15,0,0,0,0.00
2013-12-23,39,34,30,39,33,29,100,99,92,30.37,30.06,21,4,21,0.04
2013-12-24,38,27,16,34,25,14,97,91,83,30.57,30.37,8,1,9,0.00
2013-12-25,37,24,14,36,22,12,98,94,87,30.57,30.44,0,0,0,0.00
2013-12-26,38,27,19,34,25,18,100,93,81,30.45,30.35,0,0,0,0.00
2013-12-27,32,25,16,30,23,14,98,95,91,30.35,30.11,9,0,9,0.00
2013-12-28,28,25,21,27,24,21,98,97,95,30.50,30.27,8,0,8,0.00
2013-12-29,32,26,18,31,25,17,99,98,96,30.48,30.27,0,0,0,0.00
2013-12-30,32,27,18,31,26,17,99,98,96,30.35,30.17,0,0,0,0.00
2013-12-31,32,29,26,31,28,26,100,99,98,30.40,30.15,0,0,0,0.02
2014-1-1,32,30,28,32,29,27,100,100,99,30.48,30.39,0,0,0,0.00
2014-1-2,35,30,29,35,30,28,100,100,98,30.40,29.88,10,0,10,0.00